sensor_id;sensor_type;location;lat;lon;timestamp;P1;durP1;ratioP1;P2;durP2;ratioP2
55314;SDS011;41619;42.816;23.226;2022-12-31T00:01:19;193.80;;;83.28;;
55314;SDS011;41619;42.816;23.226;2022-12-31T00:03:46;197.90;;;83.50;;
55314;SDS011;41619;42.816;23.226;2022-12-31T00:06:12;198.73;;;85.63;;
55314;SDS011;41619;42.816;23.226;2022-12-31T00:09:05;229.98;;;94.65;;
55314;SDS011;41619;42.816;23.226;2022-12-31T00:11:32;189.50;;;82.03;;
55314;SDS011;41619;42.816;23.226;2022-12-31T00:13:58;167.75;;;74.05;;
55314;SDS011;41619;42.816;23.226;2022-12-31T00:16:26;150.70;;;64.43;;
55314;SDS011;41619;42.816;23.226;2022-12-31T00:18:54;137.38;;;65.40;;
55314;SDS011;41619;42.816;23.226;2022-12-31T00:21:23;129.75;;;65.10;;
55314;SDS011;41619;42.816;23.226;2022-12-31T00:23:48;124.85;;;61.13;;
55314;SDS011;41619;42.816;23.226;2022-12-31T00:26:15;122.18;;;59.38;;
55314;SDS011;41619;42.816;23.226;2022-12-31T00:28:45;117.20;;;57.58;;
55314;SDS011;41619;42.816;23.226;2022-12-31T00:31:22;114.82;;;56.85;;
55314;SDS011;41619;42.816;23.226;2022-12-31T00:33:58;124.22;;;54.20;;
55314;SDS011;41619;42.816;23.226;2022-12-31T00:36:26;112.35;;;54.75;;
55314;SDS011;41619;42.816;23.226;2022-12-31T00:38:53;112.68;;;52.55;;
55314;SDS011;41619;42.816;23.226;2022-12-31T00:41:20;101.68;;;50.25;;
55314;SDS011;41619;42.816;23.226;2022-12-31T00:43:47;106.22;;;52.67;;
55314;SDS011;41619;42.816;23.226;2022-12-31T00:46:12;111.90;;;52.10;;
55314;SDS011;41619;42.816;23.226;2022-12-31T00:48:38;99.93;;;49.80;;
55314;SDS011;41619;42.816;23.226;2022-12-31T00:51:05;104.50;;;49.63;;
55314;SDS011;41619;42.816;23.226;2022-12-31T00:53:33;105.13;;;50.05;;
55314;SDS011;41619;42.816;23.226;2022-12-31T00:55:59;111.25;;;53.28;;
55314;SDS011;41619;42.816;23.226;2022-12-31T00:58:26;101.00;;;48.95;;
55314;SDS011;41619;42.816;23.226;2022-12-31T01:00:52;105.07;;;53.50;;
55314;SDS011;41619;42.816;23.226;2022-12-31T01:03:17;104.32;;;52.15;;
55314;SDS011;41619;42.816;23.226;2022-12-31T01:05:42;108.55;;;54.55;;
55314;SDS011;41619;42.816;23.226;2022-12-31T01:08:08;107.13;;;52.15;;
55314;SDS011;41619;42.816;23.226;2022-12-31T01:10:33;106.45;;;50.75;;
55314;SDS011;41619;42.816;23.226;2022-12-31T01:13:17;85.63;;;44.47;;
55314;SDS011;41619;42.816;23.226;2022-12-31T01:15:43;87.43;;;43.88;;
55314;SDS011;41619;42.816;23.226;2022-12-31T01:18:08;89.55;;;44.70;;
55314;SDS011;41619;42.816;23.226;2022-12-31T01:20:35;95.13;;;47.47;;
55314;SDS011;41619;42.816;23.226;2022-12-31T01:23:05;93.28;;;47.08;;
55314;SDS011;41619;42.816;23.226;2022-12-31T01:25:35;96.97;;;48.30;;
55314;SDS011;41619;42.816;23.226;2022-12-31T01:28:03;94.10;;;46.45;;
55314;SDS011;41619;42.816;23.226;2022-12-31T01:30:30;105.28;;;49.60;;
55314;SDS011;41619;42.816;23.226;2022-12-31T01:32:56;99.43;;;48.08;;
55314;SDS011;41619;42.816;23.226;2022-12-31T01:35:21;102.05;;;50.08;;
55314;SDS011;41619;42.816;23.226;2022-12-31T01:37:47;98.90;;;49.00;;
55314;SDS011;41619;42.816;23.226;2022-12-31T01:40:12;92.10;;;45.88;;
55314;SDS011;41619;42.816;23.226;2022-12-31T01:42:38;95.32;;;46.05;;
55314;SDS011;41619;42.816;23.226;2022-12-31T01:45:07;93.43;;;45.85;;
55314;SDS011;41619;42.816;23.226;2022-12-31T01:47:39;92.40;;;46.97;;
55314;SDS011;41619;42.816;23.226;2022-12-31T01:50:20;98.68;;;48.10;;
55314;SDS011;41619;42.816;23.226;2022-12-31T01:52:56;98.45;;;46.92;;
55314;SDS011;41619;42.816;23.226;2022-12-31T01:55:27;91.82;;;44.95;;
55314;SDS011;41619;42.816;23.226;2022-12-31T01:57:58;96.50;;;46.22;;
55314;SDS011;41619;42.816;23.226;2022-12-31T02:00:32;93.75;;;48.42;;
55314;SDS011;41619;42.816;23.226;2022-12-31T02:02:58;100.57;;;48.42;;
55314;SDS011;41619;42.816;23.226;2022-12-31T02:08:03;102.20;;;48.53;;
55314;SDS011;41619;42.816;23.226;2022-12-31T02:10:30;93.22;;;47.35;;
55314;SDS011;41619;42.816;23.226;2022-12-31T02:12:55;104.32;;;49.58;;
55314;SDS011;41619;42.816;23.226;2022-12-31T02:15:23;95.28;;;48.08;;
55314;SDS011;41619;42.816;23.226;2022-12-31T02:18:06;103.32;;;49.92;;
55314;SDS011;41619;42.816;23.226;2022-12-31T02:31:49;124.10;;;59.88;;
55314;SDS011;41619;42.816;23.226;2022-12-31T02:34:17;139.18;;;62.72;;
55314;SDS011;41619;42.816;23.226;2022-12-31T02:36:45;122.30;;;59.55;;
55314;SDS011;41619;42.816;23.226;2022-12-31T02:39:13;123.93;;;58.90;;
55314;SDS011;41619;42.816;23.226;2022-12-31T02:41:39;111.30;;;55.60;;
55314;SDS011;41619;42.816;23.226;2022-12-31T02:54:54;104.28;;;51.65;;
55314;SDS011;41619;42.816;23.226;2022-12-31T03:00:03;103.03;;;52.20;;
55314;SDS011;41619;42.816;23.226;2022-12-31T03:02:55;106.25;;;53.83;;
55314;SDS011;41619;42.816;23.226;2022-12-31T03:05:24;116.20;;;50.25;;
55314;SDS011;41619;42.816;23.226;2022-12-31T03:10:17;76.30;;;40.00;;
55314;SDS011;41619;42.816;23.226;2022-12-31T03:12:43;87.22;;;43.47;;
55314;SDS011;41619;42.816;23.226;2022-12-31T03:20:25;88.43;;;46.25;;
55314;SDS011;41619;42.816;23.226;2022-12-31T03:23:14;88.93;;;44.13;;
55314;SDS011;41619;42.816;23.226;2022-12-31T03:25:42;88.10;;;42.50;;
55314;SDS011;41619;42.816;23.226;2022-12-31T03:28:09;80.90;;;40.45;;
55314;SDS011;41619;42.816;23.226;2022-12-31T03:30:40;83.88;;;42.40;;
55314;SDS011;41619;42.816;23.226;2022-12-31T03:33:07;88.65;;;45.35;;
55314;SDS011;41619;42.816;23.226;2022-12-31T03:35:34;80.57;;;44.75;;
55314;SDS011;41619;42.816;23.226;2022-12-31T03:38:01;85.38;;;45.05;;
55314;SDS011;41619;42.816;23.226;2022-12-31T03:40:27;95.88;;;43.95;;
55314;SDS011;41619;42.816;23.226;2022-12-31T03:42:53;82.63;;;42.50;;
55314;SDS011;41619;42.816;23.226;2022-12-31T03:45:19;79.47;;;40.03;;
55314;SDS011;41619;42.816;23.226;2022-12-31T03:47:45;73.82;;;38.35;;
55314;SDS011;41619;42.816;23.226;2022-12-31T03:50:11;74.75;;;39.80;;
55314;SDS011;41619;42.816;23.226;2022-12-31T03:52:38;79.88;;;41.45;;
55314;SDS011;41619;42.816;23.226;2022-12-31T03:55:04;82.20;;;40.80;;
55314;SDS011;41619;42.816;23.226;2022-12-31T03:57:31;87.47;;;39.63;;
55314;SDS011;41619;42.816;23.226;2022-12-31T03:59:56;80.85;;;39.45;;
55314;SDS011;41619;42.816;23.226;2022-12-31T04:02:22;78.78;;;41.95;;
55314;SDS011;41619;42.816;23.226;2022-12-31T04:04:48;82.45;;;40.40;;
55314;SDS011;41619;42.816;23.226;2022-12-31T04:07:13;89.15;;;42.05;;
55314;SDS011;41619;42.816;23.226;2022-12-31T04:09:39;80.15;;;40.65;;
55314;SDS011;41619;42.816;23.226;2022-12-31T04:12:04;84.82;;;41.83;;
55314;SDS011;41619;42.816;23.226;2022-12-31T04:14:30;78.47;;;39.40;;
55314;SDS011;41619;42.816;23.226;2022-12-31T04:16:55;76.10;;;39.28;;
55314;SDS011;41619;42.816;23.226;2022-12-31T04:19:21;82.13;;;38.33;;
55314;SDS011;41619;42.816;23.226;2022-12-31T04:21:46;79.75;;;39.67;;
55314;SDS011;41619;42.816;23.226;2022-12-31T04:24:12;83.80;;;40.20;;
55314;SDS011;41619;42.816;23.226;2022-12-31T04:26:37;68.50;;;37.15;;
55314;SDS011;41619;42.816;23.226;2022-12-31T04:29:03;86.13;;;43.45;;
55314;SDS011;41619;42.816;23.226;2022-12-31T04:31:28;100.43;;;47.97;;
55314;SDS011;41619;42.816;23.226;2022-12-31T04:33:54;100.13;;;49.65;;
55314;SDS011;41619;42.816;23.226;2022-12-31T04:36:19;112.53;;;54.03;;
55314;SDS011;41619;42.816;23.226;2022-12-31T04:38:45;135.65;;;60.38;;
55314;SDS011;41619;42.816;23.226;2022-12-31T04:41:10;125.10;;;58.50;;
55314;SDS011;41619;42.816;23.226;2022-12-31T04:43:42;109.43;;;50.10;;
55314;SDS011;41619;42.816;23.226;2022-12-31T04:46:15;103.93;;;52.08;;
55314;SDS011;41619;42.816;23.226;2022-12-31T04:48:43;108.73;;;53.83;;
55314;SDS011;41619;42.816;23.226;2022-12-31T04:51:08;99.78;;;49.47;;
55314;SDS011;41619;42.816;23.226;2022-12-31T04:53:34;92.55;;;48.90;;
55314;SDS011;41619;42.816;23.226;2022-12-31T04:56:00;95.20;;;46.15;;
55314;SDS011;41619;42.816;23.226;2022-12-31T04:58:25;94.63;;;46.08;;
55314;SDS011;41619;42.816;23.226;2022-12-31T05:00:51;119.93;;;53.72;;
55314;SDS011;41619;42.816;23.226;2022-12-31T05:03:19;118.95;;;54.88;;
55314;SDS011;41619;42.816;23.226;2022-12-31T05:05:46;117.03;;;55.88;;
55314;SDS011;41619;42.816;23.226;2022-12-31T05:08:12;99.38;;;48.30;;
55314;SDS011;41619;42.816;23.226;2022-12-31T05:10:41;98.93;;;46.60;;
55314;SDS011;41619;42.816;23.226;2022-12-31T05:13:09;106.25;;;47.70;;
55314;SDS011;41619;42.816;23.226;2022-12-31T05:15:35;104.40;;;49.58;;
55314;SDS011;41619;42.816;23.226;2022-12-31T05:18:00;97.15;;;49.03;;
55314;SDS011;41619;42.816;23.226;2022-12-31T05:20:26;98.80;;;47.20;;
55314;SDS011;41619;42.816;23.226;2022-12-31T05:22:51;93.97;;;45.90;;
55314;SDS011;41619;42.816;23.226;2022-12-31T05:25:17;117.47;;;52.53;;
55314;SDS011;41619;42.816;23.226;2022-12-31T05:27:42;126.40;;;56.55;;
55314;SDS011;41619;42.816;23.226;2022-12-31T05:30:08;126.47;;;57.83;;
55314;SDS011;41619;42.816;23.226;2022-12-31T05:32:34;119.10;;;54.03;;
55314;SDS011;41619;42.816;23.226;2022-12-31T05:34:59;107.00;;;51.85;;
55314;SDS011;41619;42.816;23.226;2022-12-31T05:37:25;97.85;;;48.88;;
55314;SDS011;41619;42.816;23.226;2022-12-31T05:39:52;94.57;;;43.53;;
55314;SDS011;41619;42.816;23.226;2022-12-31T05:42:17;95.05;;;44.50;;
55314;SDS011;41619;42.816;23.226;2022-12-31T05:44:42;80.55;;;39.67;;
55314;SDS011;41619;42.816;23.226;2022-12-31T05:47:08;84.43;;;41.45;;
55314;SDS011;41619;42.816;23.226;2022-12-31T05:49:33;90.60;;;43.92;;
55314;SDS011;41619;42.816;23.226;2022-12-31T05:51:58;87.90;;;42.05;;
55314;SDS011;41619;42.816;23.226;2022-12-31T05:54:24;79.15;;;39.10;;
55314;SDS011;41619;42.816;23.226;2022-12-31T05:56:49;93.40;;;44.25;;
55314;SDS011;41619;42.816;23.226;2022-12-31T05:59:15;87.78;;;41.72;;
55314;SDS011;41619;42.816;23.226;2022-12-31T06:01:40;90.78;;;42.38;;
55314;SDS011;41619;42.816;23.226;2022-12-31T06:04:05;95.07;;;46.13;;
55314;SDS011;41619;42.816;23.226;2022-12-31T06:06:31;88.88;;;44.17;;
55314;SDS011;41619;42.816;23.226;2022-12-31T06:08:56;91.30;;;46.22;;
55314;SDS011;41619;42.816;23.226;2022-12-31T06:11:22;98.55;;;47.45;;
55314;SDS011;41619;42.816;23.226;2022-12-31T06:13:47;108.47;;;50.65;;
55314;SDS011;41619;42.816;23.226;2022-12-31T06:16:12;166.90;;;72.38;;
55314;SDS011;41619;42.816;23.226;2022-12-31T06:18:38;143.38;;;69.10;;
55314;SDS011;41619;42.816;23.226;2022-12-31T06:21:04;135.32;;;62.30;;
55314;SDS011;41619;42.816;23.226;2022-12-31T06:23:29;118.57;;;56.85;;
55314;SDS011;41619;42.816;23.226;2022-12-31T06:25:55;147.63;;;67.35;;
55314;SDS011;41619;42.816;23.226;2022-12-31T06:28:21;141.40;;;65.68;;
55314;SDS011;41619;42.816;23.226;2022-12-31T06:30:46;131.73;;;59.42;;
55314;SDS011;41619;42.816;23.226;2022-12-31T06:33:12;125.75;;;59.10;;
55314;SDS011;41619;42.816;23.226;2022-12-31T06:35:38;124.03;;;59.22;;
55314;SDS011;41619;42.816;23.226;2022-12-31T06:38:03;250.02;;;94.55;;
55314;SDS011;41619;42.816;23.226;2022-12-31T06:40:29;241.35;;;94.53;;
55314;SDS011;41619;42.816;23.226;2022-12-31T06:42:54;217.20;;;85.55;;
55314;SDS011;41619;42.816;23.226;2022-12-31T06:45:19;210.93;;;90.32;;
55314;SDS011;41619;42.816;23.226;2022-12-31T06:47:45;223.75;;;95.53;;
55314;SDS011;41619;42.816;23.226;2022-12-31T06:50:10;217.05;;;95.40;;
55314;SDS011;41619;42.816;23.226;2022-12-31T06:52:35;201.50;;;91.18;;
55314;SDS011;41619;42.816;23.226;2022-12-31T06:55:02;146.65;;;72.65;;
55314;SDS011;41619;42.816;23.226;2022-12-31T06:57:28;146.07;;;68.03;;
55314;SDS011;41619;42.816;23.226;2022-12-31T06:59:54;231.57;;;117.78;;
55314;SDS011;41619;42.816;23.226;2022-12-31T07:02:35;135.85;;;73.97;;
55314;SDS011;41619;42.816;23.226;2022-12-31T07:10:55;92.30;;;47.58;;
55314;SDS011;41619;42.816;23.226;2022-12-31T07:16:24;131.50;;;58.13;;
55314;SDS011;41619;42.816;23.226;2022-12-31T07:19:21;98.82;;;45.70;;
55314;SDS011;41619;42.816;23.226;2022-12-31T07:21:48;88.68;;;44.85;;
55314;SDS011;41619;42.816;23.226;2022-12-31T07:24:17;84.68;;;44.30;;
55314;SDS011;41619;42.816;23.226;2022-12-31T07:38:00;90.82;;;48.55;;
55314;SDS011;41619;42.816;23.226;2022-12-31T07:46:18;156.93;;;81.78;;
55314;SDS011;41619;42.816;23.226;2022-12-31T07:48:52;117.15;;;66.80;;
55314;SDS011;41619;42.816;23.226;2022-12-31T07:51:18;116.05;;;66.50;;
55314;SDS011;41619;42.816;23.226;2022-12-31T07:53:44;117.25;;;71.10;;
55314;SDS011;41619;42.816;23.226;2022-12-31T07:56:09;129.30;;;73.10;;
55314;SDS011;41619;42.816;23.226;2022-12-31T08:01:12;148.10;;;91.03;;
55314;SDS011;41619;42.816;23.226;2022-12-31T08:06:23;126.30;;;81.78;;
55314;SDS011;41619;42.816;23.226;2022-12-31T08:12:05;109.35;;;67.28;;
55314;SDS011;41619;42.816;23.226;2022-12-31T08:14:32;81.32;;;53.92;;
55314;SDS011;41619;42.816;23.226;2022-12-31T08:17:13;94.50;;;56.75;;
55314;SDS011;41619;42.816;23.226;2022-12-31T08:19:40;73.00;;;46.00;;
55314;SDS011;41619;42.816;23.226;2022-12-31T08:22:09;79.43;;;50.65;;
55314;SDS011;41619;42.816;23.226;2022-12-31T08:30:53;86.88;;;48.17;;
55314;SDS011;41619;42.816;23.226;2022-12-31T08:46:05;71.45;;;41.47;;
55314;SDS011;41619;42.816;23.226;2022-12-31T08:48:39;70.93;;;39.80;;
55314;SDS011;41619;42.816;23.226;2022-12-31T08:51:39;64.05;;;36.40;;
55314;SDS011;41619;42.816;23.226;2022-12-31T08:53:58;54.90;;;33.33;;
55314;SDS011;41619;42.816;23.226;2022-12-31T09:06:57;53.42;;;32.33;;
55314;SDS011;41619;42.816;23.226;2022-12-31T09:12:13;51.72;;;30.00;;
55314;SDS011;41619;42.816;23.226;2022-12-31T09:20:03;58.90;;;33.63;;
55314;SDS011;41619;42.816;23.226;2022-12-31T09:22:29;56.75;;;30.30;;
55314;SDS011;41619;42.816;23.226;2022-12-31T09:24:55;47.03;;;27.25;;
55314;SDS011;41619;42.816;23.226;2022-12-31T09:27:34;43.78;;;26.02;;
55314;SDS011;41619;42.816;23.226;2022-12-31T09:30:11;43.78;;;26.42;;
55314;SDS011;41619;42.816;23.226;2022-12-31T09:38:01;46.95;;;25.13;;
55314;SDS011;41619;42.816;23.226;2022-12-31T09:40:49;43.40;;;24.77;;
55314;SDS011;41619;42.816;23.226;2022-12-31T09:52:21;44.25;;;26.08;;
55314;SDS011;41619;42.816;23.226;2022-12-31T10:14:53;51.40;;;30.30;;
55314;SDS011;41619;42.816;23.226;2022-12-31T10:31:32;45.92;;;27.33;;
55314;SDS011;41619;42.816;23.226;2022-12-31T11:18:46;48.40;;;30.50;;
55314;SDS011;41619;42.816;23.226;2022-12-31T11:33:08;66.45;;;32.47;;
55314;SDS011;41619;42.816;23.226;2022-12-31T11:48:27;50.30;;;24.83;;
55314;SDS011;41619;42.816;23.226;2022-12-31T11:56:46;58.97;;;29.95;;
55314;SDS011;41619;42.816;23.226;2022-12-31T11:59:20;44.15;;;24.65;;
55314;SDS011;41619;42.816;23.226;2022-12-31T12:04:45;39.00;;;24.48;;
55314;SDS011;41619;42.816;23.226;2022-12-31T12:09:40;41.53;;;23.27;;
55314;SDS011;41619;42.816;23.226;2022-12-31T12:12:08;31.70;;;21.30;;
55314;SDS011;41619;42.816;23.226;2022-12-31T12:17:12;42.47;;;21.88;;
55314;SDS011;41619;42.816;23.226;2022-12-31T12:19:46;38.35;;;24.48;;
55314;SDS011;41619;42.816;23.226;2022-12-31T12:22:20;35.65;;;21.23;;
55314;SDS011;41619;42.816;23.226;2022-12-31T12:24:54;35.17;;;19.77;;
55314;SDS011;41619;42.816;23.226;2022-12-31T12:27:31;39.22;;;21.20;;
55314;SDS011;41619;42.816;23.226;2022-12-31T12:30:16;34.22;;;20.45;;
55314;SDS011;41619;42.816;23.226;2022-12-31T12:32:54;29.58;;;19.27;;
55314;SDS011;41619;42.816;23.226;2022-12-31T12:35:28;32.50;;;17.52;;
55314;SDS011;41619;42.816;23.226;2022-12-31T12:40:56;27.05;;;17.52;;
55314;SDS011;41619;42.816;23.226;2022-12-31T12:43:31;121.63;;;58.03;;
55314;SDS011;41619;42.816;23.226;2022-12-31T12:46:06;42.00;;;23.40;;
55314;SDS011;41619;42.816;23.226;2022-12-31T12:48:40;27.52;;;15.57;;
55314;SDS011;41619;42.816;23.226;2022-12-31T13:05:12;27.45;;;13.65;;
55314;SDS011;41619;42.816;23.226;2022-12-31T13:16:21;28.23;;;14.35;;
55314;SDS011;41619;42.816;23.226;2022-12-31T13:18:58;21.30;;;12.35;;
55314;SDS011;41619;42.816;23.226;2022-12-31T13:24:21;31.83;;;14.75;;
55314;SDS011;41619;42.816;23.226;2022-12-31T13:29:48;25.13;;;12.23;;
55314;SDS011;41619;42.816;23.226;2022-12-31T13:32:16;23.33;;;11.85;;
55314;SDS011;41619;42.816;23.226;2022-12-31T13:34:47;16.15;;;10.10;;
55314;SDS011;41619;42.816;23.226;2022-12-31T13:37:38;17.73;;;9.57;;
55314;SDS011;41619;42.816;23.226;2022-12-31T13:40:06;17.30;;;9.30;;
55314;SDS011;41619;42.816;23.226;2022-12-31T13:43:00;16.08;;;9.30;;
55314;SDS011;41619;42.816;23.226;2022-12-31T13:45:31;16.60;;;10.52;;
55314;SDS011;41619;42.816;23.226;2022-12-31T13:48:07;15.82;;;9.65;;
55314;SDS011;41619;42.816;23.226;2022-12-31T13:51:14;16.63;;;10.07;;
55314;SDS011;41619;42.816;23.226;2022-12-31T13:56:26;17.45;;;8.02;;
55314;SDS011;41619;42.816;23.226;2022-12-31T13:59:14;12.13;;;7.63;;
55314;SDS011;41619;42.816;23.226;2022-12-31T14:02:00;19.85;;;9.02;;
55314;SDS011;41619;42.816;23.226;2022-12-31T14:04:51;21.02;;;13.10;;
55314;SDS011;41619;42.816;23.226;2022-12-31T14:07:25;29.13;;;22.17;;
55314;SDS011;41619;42.816;23.226;2022-12-31T14:09:57;32.67;;;22.42;;
55314;SDS011;41619;42.816;23.226;2022-12-31T14:12:29;31.67;;;16.27;;
55314;SDS011;41619;42.816;23.226;2022-12-31T14:17:49;24.17;;;13.60;;
55314;SDS011;41619;42.816;23.226;2022-12-31T14:26:00;24.50;;;15.48;;
55314;SDS011;41619;42.816;23.226;2022-12-31T14:28:48;31.63;;;17.98;;
55314;SDS011;41619;42.816;23.226;2022-12-31T14:51:08;84.00;;;31.27;;
55314;SDS011;41619;42.816;23.226;2022-12-31T14:53:36;92.18;;;39.72;;
55314;SDS011;41619;42.816;23.226;2022-12-31T14:56:03;107.68;;;43.58;;
55314;SDS011;41619;42.816;23.226;2022-12-31T15:03:39;148.40;;;63.35;;
55314;SDS011;41619;42.816;23.226;2022-12-31T15:20:22;208.52;;;67.07;;
55314;SDS011;41619;42.816;23.226;2022-12-31T15:23:16;212.15;;;74.40;;
55314;SDS011;41619;42.816;23.226;2022-12-31T15:25:46;227.70;;;78.35;;
55314;SDS011;41619;42.816;23.226;2022-12-31T15:28:27;190.95;;;70.55;;
55314;SDS011;41619;42.816;23.226;2022-12-31T15:33:34;153.68;;;63.28;;
55314;SDS011;41619;42.816;23.226;2022-12-31T15:36:13;152.27;;;63.70;;
55314;SDS011;41619;42.816;23.226;2022-12-31T15:38:42;157.63;;;66.13;;
55314;SDS011;41619;42.816;23.226;2022-12-31T15:43:44;170.75;;;70.00;;
55314;SDS011;41619;42.816;23.226;2022-12-31T15:46:18;170.48;;;70.55;;
55314;SDS011;41619;42.816;23.226;2022-12-31T15:48:52;179.65;;;70.35;;
55314;SDS011;41619;42.816;23.226;2022-12-31T15:51:27;158.48;;;63.45;;
55314;SDS011;41619;42.816;23.226;2022-12-31T15:53:56;146.68;;;56.65;;
55314;SDS011;41619;42.816;23.226;2022-12-31T15:56:36;131.27;;;52.08;;
55314;SDS011;41619;42.816;23.226;2022-12-31T15:59:13;133.77;;;57.95;;
55314;SDS011;41619;42.816;23.226;2022-12-31T16:01:44;118.40;;;55.05;;
55314;SDS011;41619;42.816;23.226;2022-12-31T16:06:42;125.47;;;56.53;;
55314;SDS011;41619;42.816;23.226;2022-12-31T16:09:15;124.50;;;59.38;;
55314;SDS011;41619;42.816;23.226;2022-12-31T16:11:45;120.05;;;58.58;;
55314;SDS011;41619;42.816;23.226;2022-12-31T16:14:24;126.95;;;60.45;;
55314;SDS011;41619;42.816;23.226;2022-12-31T16:16:56;185.05;;;83.63;;
55314;SDS011;41619;42.816;23.226;2022-12-31T16:19:31;203.48;;;89.40;;
55314;SDS011;41619;42.816;23.226;2022-12-31T16:21:57;183.10;;;79.65;;
55314;SDS011;41619;42.816;23.226;2022-12-31T16:24:28;175.57;;;74.97;;
55314;SDS011;41619;42.816;23.226;2022-12-31T16:26:59;159.48;;;69.47;;
55314;SDS011;41619;42.816;23.226;2022-12-31T16:29:29;150.40;;;68.43;;
55314;SDS011;41619;42.816;23.226;2022-12-31T16:31:54;257.25;;;104.00;;
55314;SDS011;41619;42.816;23.226;2022-12-31T16:34:24;228.52;;;95.40;;
55314;SDS011;41619;42.816;23.226;2022-12-31T16:39:22;249.43;;;109.05;;
55314;SDS011;41619;42.816;23.226;2022-12-31T16:41:48;259.63;;;116.82;;
55314;SDS011;41619;42.816;23.226;2022-12-31T16:44:28;271.92;;;119.40;;
55314;SDS011;41619;42.816;23.226;2022-12-31T16:46:57;268.23;;;121.03;;
55314;SDS011;41619;42.816;23.226;2022-12-31T16:49:24;194.23;;;89.38;;
55314;SDS011;41619;42.816;23.226;2022-12-31T16:52:19;388.65;;;166.95;;
55314;SDS011;41619;42.816;23.226;2022-12-31T16:54:59;353.55;;;149.30;;
55314;SDS011;41619;42.816;23.226;2022-12-31T16:57:25;347.45;;;143.93;;
55314;SDS011;41619;42.816;23.226;2022-12-31T16:59:55;399.63;;;159.48;;
55314;SDS011;41619;42.816;23.226;2022-12-31T17:02:44;372.92;;;154.40;;
55314;SDS011;41619;42.816;23.226;2022-12-31T17:05:20;440.05;;;178.60;;
55314;SDS011;41619;42.816;23.226;2022-12-31T17:07:47;401.85;;;172.32;;
55314;SDS011;41619;42.816;23.226;2022-12-31T17:12:44;200.60;;;95.55;;
55314;SDS011;41619;42.816;23.226;2022-12-31T17:15:39;198.90;;;89.78;;
55314;SDS011;41619;42.816;23.226;2022-12-31T17:18:09;158.05;;;74.80;;
55314;SDS011;41619;42.816;23.226;2022-12-31T17:20:41;149.55;;;64.65;;
55314;SDS011;41619;42.816;23.226;2022-12-31T17:23:07;161.38;;;73.15;;
55314;SDS011;41619;42.816;23.226;2022-12-31T17:25:35;236.27;;;108.38;;
55314;SDS011;41619;42.816;23.226;2022-12-31T17:28:03;248.27;;;113.30;;
55314;SDS011;41619;42.816;23.226;2022-12-31T17:33:41;289.60;;;131.15;;
55314;SDS011;41619;42.816;23.226;2022-12-31T17:35:48;342.55;;;157.85;;
55314;SDS011;41619;42.816;23.226;2022-12-31T17:40:48;316.88;;;134.27;;
55314;SDS011;41619;42.816;23.226;2022-12-31T17:43:16;417.17;;;166.30;;
55314;SDS011;41619;42.816;23.226;2022-12-31T17:45:43;401.50;;;163.20;;
55314;SDS011;41619;42.816;23.226;2022-12-31T17:48:13;396.00;;;164.57;;
55314;SDS011;41619;42.816;23.226;2022-12-31T17:50:49;414.90;;;174.18;;
55314;SDS011;41619;42.816;23.226;2022-12-31T17:53:16;432.15;;;180.30;;
55314;SDS011;41619;42.816;23.226;2022-12-31T17:55:43;417.75;;;174.50;;
55314;SDS011;41619;42.816;23.226;2022-12-31T17:58:16;415.35;;;163.77;;
55314;SDS011;41619;42.816;23.226;2022-12-31T18:00:42;475.85;;;196.68;;
55314;SDS011;41619;42.816;23.226;2022-12-31T18:03:08;417.02;;;167.75;;
55314;SDS011;41619;42.816;23.226;2022-12-31T18:05:33;354.10;;;146.43;;
55314;SDS011;41619;42.816;23.226;2022-12-31T18:07:59;389.88;;;164.90;;
55314;SDS011;41619;42.816;23.226;2022-12-31T18:10:24;387.42;;;171.35;;
55314;SDS011;41619;42.816;23.226;2022-12-31T18:12:53;376.98;;;165.35;;
55314;SDS011;41619;42.816;23.226;2022-12-31T18:15:22;371.92;;;167.32;;
55314;SDS011;41619;42.816;23.226;2022-12-31T18:17:49;372.83;;;159.55;;
55314;SDS011;41619;42.816;23.226;2022-12-31T18:20:15;401.92;;;173.65;;
55314;SDS011;41619;42.816;23.226;2022-12-31T18:22:42;441.45;;;202.23;;
55314;SDS011;41619;42.816;23.226;2022-12-31T18:25:10;370.45;;;161.05;;
55314;SDS011;41619;42.816;23.226;2022-12-31T18:27:40;385.80;;;164.43;;
55314;SDS011;41619;42.816;23.226;2022-12-31T18:30:06;384.20;;;165.40;;
55314;SDS011;41619;42.816;23.226;2022-12-31T18:32:34;373.02;;;160.48;;
55314;SDS011;41619;42.816;23.226;2022-12-31T18:35:00;365.92;;;161.07;;
55314;SDS011;41619;42.816;23.226;2022-12-31T18:37:27;367.27;;;158.38;;
55314;SDS011;41619;42.816;23.226;2022-12-31T18:39:53;374.83;;;159.07;;
55314;SDS011;41619;42.816;23.226;2022-12-31T18:42:18;315.13;;;137.77;;
55314;SDS011;41619;42.816;23.226;2022-12-31T18:44:47;326.88;;;134.45;;
55314;SDS011;41619;42.816;23.226;2022-12-31T18:47:13;233.27;;;107.70;;
55314;SDS011;41619;42.816;23.226;2022-12-31T18:49:40;251.37;;;109.93;;
55314;SDS011;41619;42.816;23.226;2022-12-31T18:52:17;269.40;;;116.35;;
55314;SDS011;41619;42.816;23.226;2022-12-31T18:54:44;454.33;;;187.88;;
55314;SDS011;41619;42.816;23.226;2022-12-31T18:57:10;261.42;;;117.78;;
55314;SDS011;41619;42.816;23.226;2022-12-31T18:59:36;254.25;;;109.38;;
55314;SDS011;41619;42.816;23.226;2022-12-31T19:02:01;328.77;;;141.02;;
55314;SDS011;41619;42.816;23.226;2022-12-31T19:04:26;346.33;;;148.73;;
55314;SDS011;41619;42.816;23.226;2022-12-31T19:06:52;356.27;;;150.50;;
55314;SDS011;41619;42.816;23.226;2022-12-31T19:09:17;369.77;;;151.55;;
55314;SDS011;41619;42.816;23.226;2022-12-31T19:11:43;374.60;;;152.30;;
55314;SDS011;41619;42.816;23.226;2022-12-31T19:14:18;341.65;;;146.43;;
55314;SDS011;41619;42.816;23.226;2022-12-31T19:16:45;315.55;;;134.57;;
55314;SDS011;41619;42.816;23.226;2022-12-31T19:19:12;430.90;;;184.80;;
55314;SDS011;41619;42.816;23.226;2022-12-31T19:21:37;363.02;;;156.50;;
55314;SDS011;41619;42.816;23.226;2022-12-31T19:24:03;347.55;;;144.85;;
55314;SDS011;41619;42.816;23.226;2022-12-31T19:26:39;336.77;;;145.23;;
55314;SDS011;41619;42.816;23.226;2022-12-31T19:29:07;333.88;;;143.50;;
55314;SDS011;41619;42.816;23.226;2022-12-31T19:31:43;317.23;;;137.48;;
55314;SDS011;41619;42.816;23.226;2022-12-31T19:34:09;317.00;;;137.73;;
55314;SDS011;41619;42.816;23.226;2022-12-31T19:36:35;298.67;;;133.95;;
55314;SDS011;41619;42.816;23.226;2022-12-31T19:39:02;295.85;;;133.27;;
55314;SDS011;41619;42.816;23.226;2022-12-31T19:41:28;319.98;;;135.60;;
55314;SDS011;41619;42.816;23.226;2022-12-31T19:43:54;352.45;;;152.73;;
55314;SDS011;41619;42.816;23.226;2022-12-31T19:46:20;553.15;;;225.73;;
55314;SDS011;41619;42.816;23.226;2022-12-31T19:48:46;427.88;;;170.52;;
55314;SDS011;41619;42.816;23.226;2022-12-31T19:51:14;328.77;;;138.75;;